createdAt,value
2023-05-13T00:00:29.980Z,63.20
2023-05-13T00:01:01.842Z,63.35
2023-05-13T00:01:38.607Z,63.20
2023-05-13T00:02:10.288Z,63.80
2023-05-13T00:02:42.013Z,63.17
2023-05-13T00:03:14.883Z,63.70
2023-05-13T00:03:47.616Z,63.70
2023-05-13T00:04:19.378Z,62.80
2023-05-13T00:04:51.998Z,63.70
2023-05-13T00:05:23.718Z,63.83
2023-05-13T00:05:55.538Z,63.88
2023-05-13T00:06:27.320Z,63.65
2023-05-13T00:07:00.000Z,63.85
2023-05-13T00:07:31.690Z,64.38
2023-05-13T00:08:07.156Z,63.85
2023-05-13T00:08:39.744Z,64.07
2023-05-13T00:09:11.751Z,63.88
2023-05-13T00:09:43.375Z,63.55
2023-05-13T00:10:16.540Z,62.67
2023-05-13T00:10:48.189Z,63.70
2023-05-13T00:11:19.822Z,63.20
2023-05-13T00:11:52.405Z,62.97
2023-05-13T00:12:24.085Z,62.90
2023-05-13T00:12:55.735Z,62.88
2023-05-13T00:13:27.416Z,63.53
2023-05-13T00:14:00.035Z,62.90
2023-05-13T00:14:33.509Z,63.60
2023-05-13T00:15:05.670Z,63.55
2023-05-13T00:15:38.364Z,63.30
2023-05-13T00:16:10.130Z,64.15
2023-05-13T00:16:43.246Z,63.65
2023-05-13T00:17:16.184Z,63.90
2023-05-13T00:17:47.887Z,63.65
2023-05-13T00:18:19.685Z,62.65
2023-05-13T00:18:51.718Z,64.10
2023-05-13T00:19:24.359Z,64.15
2023-05-13T00:19:56.149Z,64.60
2023-05-13T00:20:27.872Z,63.80
2023-05-13T00:21:00.489Z,63.10
2023-05-13T00:21:32.296Z,63.50
2023-05-13T00:22:04.142Z,62.65
2023-05-13T00:22:36.831Z,63.75
2023-05-13T00:23:08.673Z,64.15
2023-05-13T00:23:40.300Z,62.95
2023-05-13T00:24:12.908Z,63.27
2023-05-13T00:24:44.737Z,64.10
2023-05-13T00:25:16.443Z,63.67
2023-05-13T00:25:49.034Z,63.42
2023-05-13T00:26:21.699Z,62.78
2023-05-13T00:26:54.233Z,63.75
2023-05-13T00:27:26.847Z,62.70
2023-05-13T00:27:58.467Z,63.22
2023-05-13T00:28:30.097Z,62.88
2023-05-13T00:29:02.902Z,63.33
2023-05-13T00:29:36.069Z,63.53
2023-05-13T00:30:08.393Z,63.90
2023-05-13T00:30:42.194Z,63.33
2023-05-13T00:31:14.569Z,63.47
2023-05-13T00:31:46.245Z,63.67
2023-05-13T00:32:18.936Z,62.92
2023-05-13T00:32:50.839Z,63.08
2023-05-13T00:33:22.577Z,63.22
2023-05-13T00:33:55.193Z,63.53
2023-05-13T00:34:26.837Z,63.25
2023-05-13T00:34:58.653Z,63.90
2023-05-13T00:35:31.280Z,63.28
2023-05-13T00:36:02.938Z,63.28
2023-05-13T00:36:34.533Z,63.42
2023-05-13T00:37:07.105Z,63.88
2023-05-13T00:37:38.878Z,63.28
2023-05-13T00:38:10.582Z,63.15
2023-05-13T00:38:44.032Z,63.10
2023-05-13T00:39:16.753Z,63.05
2023-05-13T00:39:48.452Z,64.03
2023-05-13T00:40:21.095Z,63.60
2023-05-13T00:40:53.838Z,63.20
2023-05-13T00:41:26.056Z,63.45
2023-05-13T00:41:59.204Z,63.70
2023-05-13T00:42:30.812Z,63.35
2023-05-13T00:43:02.499Z,63.67
2023-05-13T00:43:34.094Z,62.42
2023-05-13T00:44:06.721Z,63.33
2023-05-13T00:44:40.782Z,63.20
2023-05-13T00:45:12.529Z,64.35
2023-05-13T00:45:44.207Z,63.08
2023-05-13T00:46:17.020Z,62.97
2023-05-13T00:46:49.553Z,62.95
2023-05-13T00:47:21.684Z,63.65
2023-05-13T00:47:54.580Z,63.28
2023-05-13T00:48:26.679Z,62.60
2023-05-13T00:48:59.776Z,63.53
2023-05-13T00:49:31.981Z,63.35
2023-05-13T00:50:03.986Z,64.15
2023-05-13T00:50:36.587Z,64.63
2023-05-13T00:51:08.194Z,63.13
2023-05-13T00:51:39.856Z,62.83
2023-05-13T00:52:11.729Z,64.43
2023-05-13T00:52:44.352Z,62.67
2023-05-13T00:53:16.505Z,63.40
2023-05-13T00:53:48.380Z,63.65
2023-05-13T00:54:20.993Z,63.92
2023-05-13T00:54:52.664Z,63.10
2023-05-13T00:55:24.319Z,63.55
2023-05-13T00:55:56.922Z,64.30
2023-05-13T00:56:28.538Z,63.15
2023-05-13T00:57:00.197Z,63.38
2023-05-13T00:57:32.783Z,63.67
2023-05-13T00:58:04.475Z,62.58
2023-05-13T00:58:37.206Z,62.90
2023-05-13T00:59:08.973Z,62.88
2023-05-13T00:59:41.932Z,63.33
2023-05-13T01:00:14.930Z,63.47
2023-05-13T01:00:50.493Z,63.90
2023-05-13T01:01:27.207Z,63.53
2023-05-13T01:02:04.911Z,63.63
2023-05-13T01:02:39.593Z,63.65
2023-05-13T01:03:12.956Z,62.67
2023-05-13T01:03:51.526Z,63.55
2023-05-13T01:04:27.855Z,62.60
2023-05-13T01:05:03.223Z,63.17
2023-05-13T01:05:39.457Z,62.60
2023-05-13T01:06:13.915Z,63.15
2023-05-13T01:06:51.542Z,63.85
2023-05-13T01:07:28.632Z,63.80
2023-05-13T01:08:04.202Z,63.00
2023-05-13T01:08:38.592Z,63.67
2023-05-13T01:09:14.408Z,63.20
2023-05-13T01:09:53.310Z,62.88
2023-05-13T01:10:29.002Z,63.28
2023-05-13T01:11:03.496Z,63.05
2023-05-13T01:11:37.522Z,63.08
2023-05-13T01:12:11.123Z,64.22
2023-05-13T01:12:44.608Z,63.55
2023-05-13T01:13:18.389Z,63.15
2023-05-13T01:13:53.124Z,63.40
2023-05-13T01:14:27.024Z,62.78
2023-05-13T01:15:04.133Z,63.30
2023-05-13T01:15:38.702Z,63.30
2023-05-13T01:16:14.151Z,63.67
2023-05-13T01:16:49.276Z,63.30
2023-05-13T01:17:24.309Z,63.03
2023-05-13T01:18:01.589Z,62.78
2023-05-13T01:18:35.419Z,63.40
2023-05-13T01:19:10.910Z,63.60
2023-05-13T01:19:45.986Z,64.07
2023-05-13T01:20:19.257Z,63.50
2023-05-13T01:20:51.092Z,63.33
2023-05-13T01:21:27.327Z,63.85
2023-05-13T01:21:59.503Z,63.25
2023-05-13T01:22:32.105Z,63.72
2023-05-13T01:23:06.261Z,63.58
2023-05-13T01:23:38.092Z,62.97
2023-05-13T01:24:10.287Z,62.25
2023-05-13T01:24:42.994Z,63.08
2023-05-13T01:25:14.729Z,64.10
2023-05-13T01:25:46.750Z,63.88
2023-05-13T01:26:19.778Z,62.55
2023-05-13T01:26:51.608Z,63.05
2023-05-13T01:27:23.772Z,63.63
2023-05-13T01:27:57.625Z,64.00
2023-05-13T01:28:29.606Z,63.75
2023-05-13T01:29:01.553Z,62.92
2023-05-13T01:29:33.298Z,62.63
2023-05-13T01:30:07.973Z,64.65
2023-05-13T01:30:39.853Z,63.42
2023-05-13T01:31:13.302Z,63.53
2023-05-13T01:31:47.688Z,63.17
2023-05-13T01:32:19.661Z,63.58
2023-05-13T01:32:51.781Z,63.88
2023-05-13T01:33:23.803Z,63.08
2023-05-13T01:33:56.760Z,62.90
2023-05-13T01:34:28.583Z,63.38
2023-05-13T01:35:00.947Z,62.97
2023-05-13T01:35:35.718Z,63.37
2023-05-13T01:36:07.876Z,63.05
2023-05-13T01:36:41.712Z,64.13
2023-05-13T01:37:14.746Z,63.97
2023-05-13T01:37:47.245Z,63.78
2023-05-13T01:38:19.368Z,63.47
2023-05-13T01:38:56.728Z,62.45
2023-05-13T01:39:28.692Z,63.83
2023-05-13T01:40:24.368Z,63.88
2023-05-13T01:40:57.194Z,63.30
2023-05-13T01:41:28.879Z,64.43
2023-05-13T01:42:00.585Z,63.33
2023-05-13T01:42:35.051Z,63.85
2023-05-13T01:43:07.780Z,63.15
2023-05-13T01:43:40.946Z,64.20
2023-05-13T01:44:12.586Z,64.88
2023-05-13T01:44:45.237Z,63.58
2023-05-13T01:45:16.868Z,65.50
2023-05-13T01:45:48.700Z,63.83
2023-05-13T01:46:21.378Z,63.28
2023-05-13T01:46:53.645Z,64.45
2023-05-13T01:47:25.569Z,64.18
2023-05-13T01:47:58.451Z,64.35
2023-05-13T01:48:31.994Z,63.97
2023-05-13T01:49:03.773Z,63.27
2023-05-13T01:49:36.472Z,63.28
2023-05-13T01:50:08.631Z,64.07
2023-05-13T01:50:40.312Z,63.65
2023-05-13T01:51:13.690Z,64.18
2023-05-13T01:51:46.691Z,63.97
2023-05-13T01:52:18.466Z,63.97
2023-05-13T01:52:51.441Z,62.78
2023-05-13T01:53:23.450Z,64.00
2023-05-13T01:53:57.506Z,62.75
2023-05-13T01:54:31.379Z,63.15
2023-05-13T01:55:09.102Z,63.78
2023-05-13T01:55:41.042Z,63.30
2023-05-13T01:56:14.360Z,63.47
2023-05-13T01:56:46.264Z,64.20
2023-05-13T01:57:17.947Z,64.55
2023-05-13T01:57:50.562Z,64.60
2023-05-13T01:58:22.860Z,63.83
2023-05-13T01:58:54.560Z,64.47
2023-05-13T01:59:27.384Z,64.20
2023-05-13T01:59:59.032Z,63.85
2023-05-13T02:00:30.776Z,63.85
2023-05-13T02:01:03.945Z,63.75
2023-05-13T02:01:35.627Z,64.15
2023-05-13T02:02:07.365Z,63.72
2023-05-13T02:02:40.084Z,63.72
2023-05-13T02:03:12.382Z,62.95
2023-05-13T02:03:45.105Z,63.90
2023-05-13T02:04:17.837Z,63.88
2023-05-13T02:04:49.418Z,64.03
2023-05-13T02:05:21.297Z,63.90
2023-05-13T02:05:54.153Z,64.05
2023-05-13T02:06:26.333Z,64.10
2023-05-13T02:06:59.342Z,64.13
2023-05-13T02:07:35.307Z,64.05
2023-05-13T02:08:07.668Z,64.90
2023-05-13T02:08:39.365Z,64.18
2023-05-13T02:09:12.005Z,64.03
2023-05-13T02:09:44.829Z,64.57
2023-05-13T02:10:16.626Z,63.05
2023-05-13T02:10:55.463Z,64.43
2023-05-13T02:11:27.643Z,63.40
2023-05-13T02:12:02.165Z,64.10
2023-05-13T02:12:35.142Z,63.88
2023-05-13T02:13:06.878Z,63.92
2023-05-13T02:13:38.493Z,64.35
2023-05-13T02:14:11.109Z,63.33
2023-05-13T02:14:43.053Z,63.78
2023-05-13T02:15:14.818Z,63.72
2023-05-13T02:15:47.493Z,64.88
2023-05-13T02:16:20.005Z,63.78
2023-05-13T02:16:51.765Z,64.03
2023-05-13T02:17:24.533Z,64.75
2023-05-13T02:17:57.393Z,64.40
2023-05-13T02:18:29.140Z,63.78
2023-05-13T02:19:01.895Z,63.80
2023-05-13T02:19:33.537Z,64.47
2023-05-13T02:20:05.818Z,63.92
2023-05-13T02:20:37.493Z,63.83
2023-05-13T02:21:10.332Z,64.15
2023-05-13T02:21:43.476Z,63.22
2023-05-13T02:22:16.512Z,64.55
2023-05-13T02:22:49.104Z,64.65
2023-05-13T02:23:20.717Z,64.80
2023-05-13T02:23:52.409Z,64.57
2023-05-13T02:24:25.821Z,64.57
2023-05-13T02:24:57.504Z,64.72
2023-05-13T02:25:29.138Z,63.88
2023-05-13T02:26:01.715Z,65.15
2023-05-13T02:26:33.436Z,65.13
2023-05-13T02:27:05.774Z,65.25
2023-05-13T02:27:38.666Z,65.22
2023-05-13T02:28:10.639Z,65.80
2023-05-13T02:28:42.285Z,65.13
2023-05-13T02:29:14.973Z,65.47
2023-05-13T02:29:46.692Z,64.20
2023-05-13T02:30:18.547Z,64.93
2023-05-13T02:30:50.274Z,64.00
2023-05-13T02:31:22.965Z,66.05
2023-05-13T02:31:55.661Z,64.25
2023-05-13T02:32:27.594Z,64.78
2023-05-13T02:32:59.850Z,64.43
2023-05-13T02:33:32.538Z,66.55
2023-05-13T02:34:04.174Z,65.22
2023-05-13T02:34:35.959Z,65.73
2023-05-13T02:35:07.974Z,66.13
2023-05-13T02:35:40.650Z,65.85
2023-05-13T02:36:12.347Z,65.43
2023-05-13T02:36:43.994Z,65.15
2023-05-13T02:37:17.958Z,65.88
2023-05-13T02:37:58.309Z,65.32
2023-05-13T02:38:30.946Z,65.60
2023-05-13T02:39:04.065Z,66.50
2023-05-13T02:39:36.198Z,64.75
2023-05-13T02:40:08.696Z,65.30
2023-05-13T02:40:41.359Z,66.45
2023-05-13T02:41:13.083Z,65.97
2023-05-13T02:41:44.761Z,66.68
2023-05-13T02:42:17.553Z,65.75
2023-05-13T02:42:49.490Z,64.93
2023-05-13T02:43:25.015Z,65.80
2023-05-13T02:44:02.824Z,65.07
2023-05-13T02:44:34.579Z,67.03
2023-05-13T02:45:07.194Z,66.72
2023-05-13T02:45:42.844Z,66.50
2023-05-13T02:46:16.154Z,65.93
2023-05-13T02:46:49.373Z,65.55
2023-05-13T02:47:21.987Z,65.82
2023-05-13T02:47:53.815Z,66.18
2023-05-13T02:48:25.557Z,65.72
2023-05-13T02:48:59.274Z,66.40
2023-05-13T02:49:33.805Z,66.60
2023-05-13T02:50:07.497Z,67.00
2023-05-13T02:50:41.052Z,66.60
2023-05-13T02:51:14.445Z,66.47
2023-05-13T02:51:47.596Z,66.47
2023-05-13T02:52:22.457Z,65.88
2023-05-13T02:52:54.120Z,66.35
2023-05-13T02:53:27.050Z,67.03
2023-05-13T02:54:03.873Z,67.40
2023-05-13T02:54:35.554Z,66.65
2023-05-13T02:55:08.902Z,67.00
2023-05-13T02:55:41.776Z,65.75
2023-05-13T02:56:16.237Z,66.60
2023-05-13T02:56:48.932Z,65.80
2023-05-13T02:57:20.605Z,66.25
2023-05-13T02:57:52.275Z,66.05
2023-05-13T02:58:24.835Z,67.20
2023-05-13T02:58:57.314Z,68.03
2023-05-13T02:59:29.002Z,68.30
2023-05-13T03:00:00.630Z,66.88
2023-05-13T03:00:33.256Z,68.30
2023-05-13T03:01:04.930Z,67.22
2023-05-13T03:01:36.707Z,67.55
2023-05-13T03:02:09.470Z,67.43
2023-05-13T03:02:42.227Z,67.53
2023-05-13T03:03:13.989Z,68.97
2023-05-13T03:03:46.726Z,66.87
2023-05-13T03:04:18.807Z,66.07
2023-05-13T03:04:50.620Z,67.03
2023-05-13T03:05:23.217Z,67.15
2023-05-13T03:05:54.901Z,67.03
2023-05-13T03:06:26.611Z,66.82
2023-05-13T03:06:59.211Z,66.70
2023-05-13T03:07:32.213Z,66.47
2023-05-13T03:08:04.025Z,66.65
2023-05-13T03:08:36.678Z,67.07
2023-05-13T03:09:08.295Z,67.60
2023-05-13T03:09:42.164Z,66.65
2023-05-13T03:10:14.902Z,67.13
2023-05-13T03:10:46.599Z,66.25
2023-05-13T03:11:18.227Z,67.15
2023-05-13T03:11:50.885Z,67.43
2023-05-13T03:12:22.552Z,66.82
2023-05-13T03:12:54.164Z,68.15
2023-05-13T03:13:26.776Z,67.82
2023-05-13T03:13:58.368Z,67.13
2023-05-13T03:14:29.976Z,66.35
2023-05-13T03:15:02.765Z,65.78
2023-05-13T03:15:34.392Z,66.95
2023-05-13T03:16:06.209Z,67.25
2023-05-13T03:16:39.022Z,66.40
2023-05-13T03:17:10.861Z,68.38
2023-05-13T03:17:44.276Z,67.78
2023-05-13T03:18:17.131Z,67.15
2023-05-13T03:18:49.136Z,69.95
2023-05-13T03:19:21.621Z,67.25
2023-05-13T03:19:53.238Z,67.75
2023-05-13T03:20:25.854Z,67.67
2023-05-13T03:20:57.506Z,67.63
2023-05-13T03:21:29.655Z,67.43
2023-05-13T03:22:02.482Z,67.03
2023-05-13T03:22:36.903Z,68.07
2023-05-13T03:23:08.591Z,66.18
2023-05-13T03:23:41.620Z,66.45
2023-05-13T03:24:13.350Z,67.95
2023-05-13T03:24:45.345Z,67.88
2023-05-13T03:25:19.025Z,66.80
2023-05-13T03:25:57.806Z,68.13
2023-05-13T03:26:29.626Z,67.65
2023-05-13T03:27:02.888Z,68.03
2023-05-13T03:27:35.523Z,68.20
2023-05-13T03:28:08.763Z,66.53
2023-05-13T03:28:45.627Z,66.95
2023-05-13T03:29:17.787Z,66.35
2023-05-13T03:29:49.480Z,67.00
2023-05-13T03:30:22.617Z,66.65
2023-05-13T03:31:03.399Z,67.10
2023-05-13T03:31:39.679Z,66.85
2023-05-13T03:32:11.431Z,65.50
2023-05-13T03:32:43.229Z,67.28
2023-05-13T03:33:16.085Z,67.60
2023-05-13T03:33:47.734Z,67.55
2023-05-13T03:34:19.404Z,67.53
2023-05-13T03:34:52.075Z,67.45
2023-05-13T03:35:23.717Z,66.40
2023-05-13T03:35:55.479Z,66.47
2023-05-13T03:36:33.390Z,67.45
2023-05-13T03:37:05.646Z,67.20
2023-05-13T03:37:38.745Z,67.25
2023-05-13T03:38:13.133Z,67.78
2023-05-13T03:38:49.594Z,66.80
2023-05-13T03:39:21.275Z,67.97
2023-05-13T03:39:53.850Z,67.85
2023-05-13T03:40:25.522Z,67.25
2023-05-13T03:40:57.239Z,67.03
2023-05-13T03:41:30.452Z,68.38
2023-05-13T03:42:03.978Z,67.30
2023-05-13T03:42:35.633Z,66.55
2023-05-13T03:43:10.189Z,66.95
2023-05-13T03:43:44.378Z,66.70
2023-05-13T03:44:17.266Z,66.72
2023-05-13T03:44:50.036Z,67.05
2023-05-13T03:45:21.768Z,65.40
2023-05-13T03:45:56.085Z,67.38
2023-05-13T03:46:29.935Z,67.03
2023-05-13T03:47:01.617Z,67.90
2023-05-13T03:47:34.069Z,67.22
2023-05-13T03:48:10.319Z,67.00
2023-05-13T03:48:42.090Z,66.03
2023-05-13T03:49:13.918Z,66.18
2023-05-13T03:49:48.920Z,67.43
2023-05-13T03:50:21.201Z,67.78
2023-05-13T03:50:53.099Z,66.10
2023-05-13T03:51:26.212Z,65.40
2023-05-13T03:51:57.839Z,66.28
2023-05-13T03:52:29.564Z,67.13
2023-05-13T03:53:03.570Z,66.35
2023-05-13T03:53:35.671Z,66.88
2023-05-13T03:54:07.572Z,66.25
2023-05-13T03:54:40.392Z,66.30
2023-05-13T03:55:12.005Z,65.65
2023-05-13T03:55:43.577Z,66.65
2023-05-13T03:56:16.539Z,67.13
2023-05-13T03:56:49.896Z,67.38
2023-05-13T03:57:21.514Z,66.80
2023-05-13T03:57:54.095Z,66.18
2023-05-13T03:58:26.317Z,66.90
2023-05-13T03:58:58.010Z,66.15
2023-05-13T03:59:30.693Z,66.75
2023-05-13T04:00:02.353Z,66.30
2023-05-13T04:00:34.078Z,67.68
2023-05-13T04:01:07.885Z,66.25
2023-05-13T04:01:39.674Z,66.65
2023-05-13T04:02:11.296Z,66.30
2023-05-13T04:02:44.106Z,67.93
2023-05-13T04:03:17.515Z,67.53
2023-05-13T04:03:50.244Z,66.38
2023-05-13T04:04:22.001Z,65.75
2023-05-13T04:04:55.088Z,66.03
2023-05-13T04:05:26.755Z,66.28
2023-05-13T04:05:58.454Z,65.57
2023-05-13T04:06:31.760Z,67.07
2023-05-13T04:07:03.460Z,68.32
2023-05-13T04:07:35.552Z,67.57
2023-05-13T04:08:11.205Z,67.20
2023-05-13T04:08:43.492Z,67.45
2023-05-13T04:09:15.623Z,67.45
2023-05-13T04:09:48.360Z,66.07
2023-05-13T04:10:20.148Z,65.80
2023-05-13T04:10:52.052Z,66.43
2023-05-13T04:11:24.672Z,65.50
2023-05-13T04:11:56.493Z,65.57
2023-05-13T04:12:28.143Z,65.68
2023-05-13T04:13:00.810Z,67.20
2023-05-13T04:13:32.950Z,66.65
2023-05-13T04:14:04.632Z,66.15
2023-05-13T04:14:37.564Z,66.93
2023-05-13T04:15:09.537Z,67.40
2023-05-13T04:15:41.170Z,67.50
2023-05-13T04:16:14.405Z,67.10
2023-05-13T04:16:46.501Z,67.40
2023-05-13T04:17:18.226Z,68.45
2023-05-13T04:17:51.154Z,66.75
2023-05-13T04:18:22.881Z,66.68
2023-05-13T04:18:54.608Z,65.88
2023-05-13T04:19:27.223Z,67.10
2023-05-13T04:19:58.913Z,66.90
2023-05-13T04:20:30.571Z,66.60
2023-05-13T04:21:06.692Z,67.70
2023-05-13T04:21:38.355Z,67.88
2023-05-13T04:22:09.982Z,66.73
2023-05-13T04:22:42.576Z,66.05
2023-05-13T04:23:15.708Z,67.53
2023-05-13T04:23:47.325Z,68.97
2023-05-13T04:24:19.995Z,67.40
2023-05-13T04:24:56.692Z,67.72
2023-05-13T04:25:28.503Z,67.88
2023-05-13T04:26:01.561Z,68.35
2023-05-13T04:26:33.796Z,68.20
2023-05-13T04:27:05.708Z,66.90
2023-05-13T04:27:38.485Z,67.78
2023-05-13T04:28:17.998Z,67.78
2023-05-13T04:28:49.602Z,67.07
2023-05-13T04:29:22.187Z,66.57
2023-05-13T04:29:53.827Z,68.70
2023-05-13T04:30:25.574Z,68.82
2023-05-13T04:30:58.181Z,68.10
2023-05-13T04:31:29.960Z,66.45
2023-05-13T04:32:01.989Z,68.13
2023-05-13T04:32:34.911Z,68.68
2023-05-13T04:33:06.729Z,68.15
2023-05-13T04:33:39.602Z,68.40
2023-05-13T04:34:12.818Z,67.50
2023-05-13T04:34:44.835Z,67.28
2023-05-13T04:35:16.482Z,66.82
2023-05-13T04:35:51.619Z,67.22
2023-05-13T04:36:23.223Z,67.53
2023-05-13T04:36:55.655Z,67.85
2023-05-13T04:37:28.360Z,68.07
2023-05-13T04:38:03.719Z,67.20
2023-05-13T04:38:37.852Z,67.47
2023-05-13T04:39:11.069Z,67.30
2023-05-13T04:39:43.125Z,67.10
2023-05-13T04:40:16.105Z,67.75
2023-05-13T04:40:47.980Z,67.05
2023-05-13T04:41:24.166Z,66.57
2023-05-13T04:41:56.782Z,67.63
2023-05-13T04:42:28.570Z,68.20
2023-05-13T04:43:00.335Z,67.50
2023-05-13T04:43:38.137Z,66.32
2023-05-13T04:44:10.428Z,68.25
2023-05-13T04:44:42.119Z,69.85
2023-05-13T04:45:14.736Z,67.85
2023-05-13T04:45:47.285Z,67.15
2023-05-13T04:46:19.092Z,66.78
2023-05-13T04:46:51.855Z,68.05
2023-05-13T04:47:23.563Z,66.38
2023-05-13T04:47:57.623Z,67.38
2023-05-13T04:48:31.046Z,67.97
2023-05-13T04:49:03.161Z,67.80
2023-05-13T04:49:34.999Z,66.60
2023-05-13T04:50:08.433Z,66.93
2023-05-13T04:50:44.605Z,67.57
2023-05-13T04:51:17.558Z,68.03
2023-05-13T04:51:49.895Z,67.13
2023-05-13T04:52:22.634Z,67.10
2023-05-13T04:52:56.522Z,66.57
2023-05-13T04:53:28.255Z,67.55
2023-05-13T04:54:04.401Z,67.65
2023-05-13T04:54:38.397Z,67.03
2023-05-13T04:55:10.794Z,66.07
2023-05-13T04:55:43.013Z,68.05
2023-05-13T04:56:16.677Z,67.30
2023-05-13T04:56:48.447Z,67.40
2023-05-13T04:57:20.183Z,66.18
2023-05-13T04:57:51.942Z,65.85
2023-05-13T04:58:24.870Z,67.60
2023-05-13T04:58:56.524Z,66.65
2023-05-13T04:59:28.204Z,66.40
2023-05-13T04:59:59.836Z,65.80
2023-05-13T05:00:32.454Z,66.28
2023-05-13T05:01:04.206Z,66.18
2023-05-13T05:01:36.100Z,67.30
2023-05-13T05:02:08.835Z,66.68
2023-05-13T05:02:40.540Z,66.75
2023-05-13T05:03:12.563Z,67.03
2023-05-13T05:03:45.267Z,66.37
2023-05-13T05:04:17.077Z,68.13
2023-05-13T05:04:49.844Z,66.53
2023-05-13T05:05:22.740Z,67.00
2023-05-13T05:05:54.402Z,66.70
2023-05-13T05:06:27.221Z,66.45
2023-05-13T05:07:00.136Z,67.35
2023-05-13T05:07:31.792Z,66.13
2023-05-13T05:08:03.516Z,66.45
2023-05-13T05:08:36.098Z,65.93
2023-05-13T05:09:09.652Z,66.78
2023-05-13T05:09:41.501Z,68.38
2023-05-13T05:10:15.174Z,66.15
2023-05-13T05:10:52.360Z,64.95
2023-05-13T05:11:25.031Z,65.68
2023-05-13T05:11:57.286Z,66.93
2023-05-13T05:12:32.374Z,66.35
2023-05-13T05:13:04.024Z,65.78
2023-05-13T05:13:35.728Z,67.53
2023-05-13T05:14:07.398Z,66.88
2023-05-13T05:14:40.128Z,67.30
2023-05-13T05:15:15.738Z,65.25
2023-05-13T05:15:49.498Z,65.40
2023-05-13T05:16:22.180Z,66.22
2023-05-13T05:16:54.570Z,65.93
2023-05-13T05:17:27.879Z,67.20
2023-05-13T05:18:00.968Z,66.07
2023-05-13T05:18:33.013Z,66.57
2023-05-13T05:19:05.165Z,65.78
2023-05-13T05:19:37.810Z,65.03
2023-05-13T05:20:10.537Z,66.15
2023-05-13T05:20:42.887Z,65.95
2023-05-13T05:21:22.344Z,65.55
2023-05-13T05:21:55.639Z,66.30
2023-05-13T05:22:27.327Z,65.82
2023-05-13T05:22:59.676Z,65.25
2023-05-13T05:23:32.917Z,68.03
2023-05-13T05:24:06.042Z,66.47
2023-05-13T05:24:39.008Z,65.70
2023-05-13T05:25:11.620Z,66.57
2023-05-13T05:25:44.495Z,65.00
2023-05-13T05:26:16.124Z,65.35
2023-05-13T05:26:48.278Z,65.28
2023-05-13T05:27:21.568Z,64.45
2023-05-13T05:27:53.204Z,64.88
2023-05-13T05:28:24.980Z,64.68
2023-05-13T05:28:57.561Z,64.80
2023-05-13T05:29:29.237Z,65.05
2023-05-13T05:30:00.929Z,64.93
2023-05-13T05:30:39.393Z,64.75
2023-05-13T05:31:15.883Z,65.25
2023-05-13T05:31:47.681Z,64.85
2023-05-13T05:32:20.741Z,65.85
2023-05-13T05:32:52.819Z,64.78
2023-05-13T05:33:24.780Z,64.38
2023-05-13T05:33:57.489Z,64.78
2023-05-13T05:34:29.253Z,64.18
2023-05-13T05:35:02.309Z,65.68
2023-05-13T05:35:37.135Z,63.80
2023-05-13T05:36:09.786Z,64.43
2023-05-13T05:36:41.434Z,63.90
2023-05-13T05:37:14.175Z,64.22
2023-05-13T05:37:46.720Z,64.38
2023-05-13T05:38:18.523Z,63.03
2023-05-13T05:38:52.674Z,63.88
2023-05-13T05:39:25.315Z,64.47
2023-05-13T05:39:58.344Z,65.93
2023-05-13T05:40:31.809Z,65.25
2023-05-13T05:41:03.689Z,63.83
2023-05-13T05:41:35.487Z,64.63
2023-05-13T05:42:08.376Z,63.03
2023-05-13T05:42:40.603Z,63.10
2023-05-13T05:43:12.479Z,63.25
2023-05-13T05:43:45.101Z,64.25
2023-05-13T05:44:16.739Z,63.80
2023-05-13T05:44:49.213Z,63.85
2023-05-13T05:45:21.780Z,63.92
2023-05-13T05:45:53.452Z,64.20
2023-05-13T05:46:25.915Z,63.92
2023-05-13T05:46:57.690Z,63.55
2023-05-13T05:47:30.345Z,63.90
2023-05-13T05:48:02.108Z,63.17
2023-05-13T05:48:34.742Z,63.47
2023-05-13T05:49:08.290Z,63.47
2023-05-13T05:49:41.013Z,63.53
2023-05-13T05:50:12.863Z,63.53
2023-05-13T05:50:45.737Z,64.90
2023-05-13T05:51:21.005Z,63.88
2023-05-13T05:51:53.180Z,64.47
2023-05-13T05:52:26.824Z,63.83
2023-05-13T05:52:59.300Z,64.10
2023-05-13T05:53:31.971Z,64.32
2023-05-13T05:54:06.016Z,63.28
2023-05-13T05:54:37.685Z,63.55
2023-05-13T05:55:10.818Z,63.33
2023-05-13T05:55:43.400Z,63.38
2023-05-13T05:56:15.050Z,63.85
2023-05-13T05:56:48.360Z,63.75
2023-05-13T05:57:20.991Z,63.40
2023-05-13T05:57:53.234Z,63.78
2023-05-13T05:58:27.008Z,63.53
2023-05-13T05:58:59.866Z,63.92
2023-05-13T05:59:32.164Z,63.67
2023-05-13T06:00:04.514Z,63.70
2023-05-13T06:00:37.204Z,62.95
2023-05-13T06:01:08.901Z,63.35
2023-05-13T06:01:41.102Z,63.55
2023-05-13T06:02:13.809Z,62.67
2023-05-13T06:02:46.796Z,62.60
2023-05-13T06:03:18.631Z,64.07
2023-05-13T06:03:54.573Z,63.45
2023-05-13T06:04:26.793Z,63.72
2023-05-13T06:04:58.468Z,63.42
2023-05-13T06:05:31.529Z,63.78
2023-05-13T06:06:03.254Z,63.40
2023-05-13T06:06:36.776Z,63.10
2023-05-13T06:07:11.517Z,63.45
2023-05-13T06:07:44.315Z,63.30
2023-05-13T06:08:15.971Z,62.90
2023-05-13T06:08:48.698Z,64.22
2023-05-13T06:09:20.384Z,63.88
2023-05-13T06:09:53.918Z,62.42
2023-05-13T06:10:27.907Z,63.08
2023-05-13T06:10:59.759Z,62.28
2023-05-13T06:11:31.471Z,62.15
2023-05-13T06:12:04.127Z,62.40
2023-05-13T06:12:37.450Z,62.17
2023-05-13T06:13:09.103Z,63.00
2023-05-13T06:13:41.761Z,62.35
2023-05-13T06:14:13.366Z,62.65
2023-05-13T06:14:44.977Z,62.80
2023-05-13T06:15:17.753Z,62.38
2023-05-13T06:15:49.629Z,62.22
2023-05-13T06:16:21.349Z,62.20
2023-05-13T06:16:55.713Z,61.80
2023-05-13T06:17:27.642Z,62.25
2023-05-13T06:17:59.895Z,62.65
2023-05-13T06:18:32.546Z,61.55
2023-05-13T06:19:04.333Z,63.20
2023-05-13T06:19:36.020Z,61.97
2023-05-13T06:20:09.511Z,61.97
2023-05-13T06:20:41.278Z,62.92
2023-05-13T06:21:12.938Z,62.63
2023-05-13T06:21:45.688Z,62.63
2023-05-13T06:22:17.456Z,61.90
2023-05-13T06:22:49.122Z,62.78
2023-05-13T06:23:21.915Z,62.63
2023-05-13T06:23:53.513Z,62.33
2023-05-13T06:24:26.252Z,62.10
2023-05-13T06:24:58.842Z,62.25
2023-05-13T06:25:31.827Z,61.75
2023-05-13T06:26:04.308Z,62.13
2023-05-13T06:26:37.230Z,62.60
2023-05-13T06:27:08.834Z,62.00
2023-05-13T06:27:40.501Z,62.80
2023-05-13T06:28:13.092Z,63.03
2023-05-13T06:28:44.764Z,63.00
2023-05-13T06:29:16.394Z,62.28
2023-05-13T06:29:49.033Z,62.47
2023-05-13T06:30:21.715Z,62.30
2023-05-13T06:30:54.484Z,62.08
2023-05-13T06:31:27.610Z,61.83
2023-05-13T06:31:59.255Z,62.45
2023-05-13T06:32:30.972Z,62.42
2023-05-13T06:33:03.756Z,62.47
2023-05-13T06:33:35.596Z,63.15
2023-05-13T06:34:07.458Z,62.80
2023-05-13T06:34:42.423Z,63.55
2023-05-13T06:35:14.271Z,63.25
2023-05-13T06:35:49.440Z,62.83
2023-05-13T06:36:23.312Z,63.30
2023-05-13T06:36:55.202Z,62.92
2023-05-13T06:37:27.064Z,62.95
2023-05-13T06:37:59.791Z,62.80
2023-05-13T06:38:31.588Z,62.70
2023-05-13T06:39:04.461Z,61.90
2023-05-13T06:39:38.586Z,62.33
2023-05-13T06:40:10.568Z,62.90
2023-05-13T06:40:47.397Z,63.15
2023-05-13T06:41:21.357Z,62.78
2023-05-13T06:41:54.272Z,63.38
2023-05-13T06:42:30.185Z,62.85
2023-05-13T06:43:06.249Z,63.58
2023-05-13T06:43:45.591Z,62.65
2023-05-13T06:44:26.944Z,63.28
2023-05-13T06:45:00.870Z,63.30
2023-05-13T06:45:34.290Z,62.85
2023-05-13T06:46:07.321Z,62.40
2023-05-13T06:46:39.362Z,62.63
2023-05-13T06:47:14.807Z,62.33
2023-05-13T06:47:47.908Z,62.75
2023-05-13T06:48:19.564Z,62.97
2023-05-13T06:48:52.859Z,63.08
2023-05-13T06:49:25.666Z,61.78
2023-05-13T06:49:58.684Z,62.53
2023-05-13T06:50:30.373Z,63.30
2023-05-13T06:51:05.184Z,62.72
2023-05-13T06:51:36.781Z,62.88
2023-05-13T06:52:08.855Z,64.10
2023-05-13T06:52:42.056Z,63.25
2023-05-13T06:53:13.865Z,63.03
2023-05-13T06:53:46.275Z,63.10
2023-05-13T06:54:17.882Z,63.38
2023-05-13T06:54:50.535Z,63.03
2023-05-13T06:55:22.222Z,63.00
2023-05-13T06:55:55.322Z,64.00
2023-05-13T06:56:27.966Z,63.08
2023-05-13T06:56:59.652Z,63.40
2023-05-13T06:57:41.913Z,62.78
2023-05-13T06:58:15.717Z,63.47
2023-05-13T06:58:47.348Z,63.90
2023-05-13T06:59:20.223Z,63.25
2023-05-13T06:59:52.837Z,63.57
2023-05-13T07:00:24.748Z,63.42
2023-05-13T07:00:56.435Z,64.32
2023-05-13T07:01:29.755Z,62.65
2023-05-13T07:02:01.828Z,63.60
2023-05-13T07:02:33.597Z,62.95
2023-05-13T07:03:06.781Z,62.78